Time;durP1;ratioP1;P1;durP2;ratioP2;P2;SDS_P1;SDS_P2;PMS_P1;PMS_P2;Temp;Humidity;BMP_temperature;BMP_pressure;BME280_temperature;BME280_humidity;BME280_pressure;Samples;Min_cycle;Max_cycle;Signal;HPM_P1;HPM_P2
2022/06/11 00:02:25;;;;;;;4.03;2.80;;;20.80;65.90;;;-142.21;100.00;112049.66;5065302;28;20292;-71
2022/06/11 00:04:52;;;;;;;2.57;2.37;;;20.70;66.00;;;-142.21;100.00;112049.66;5056408;28;20281;-71
2022/06/11 00:07:23;;;;;;;2.87;2.57;;;20.70;66.00;;;-142.21;100.00;112049.66;5062821;28;20202;-71
2022/06/11 00:09:52;;;;;;;2.83;2.47;;;20.70;66.10;;;-142.21;100.00;112049.66;5060823;28;20190;-71
2022/06/11 00:12:29;;;;;;;4.13;2.90;;;20.70;66.20;;;-142.21;100.00;112049.66;5065745;28;20236;-72
2022/06/11 00:14:57;;;;;;;2.97;2.40;;;20.60;66.40;;;-142.21;100.00;112049.66;5064821;28;20717;-71
2022/06/11 00:17:29;;;;;;;7.57;3.10;;;20.50;66.30;;;-142.21;100.00;112049.66;5058217;28;20198;-72
2022/06/11 00:19:58;;;;;;;3.10;2.80;;;20.50;66.30;;;-142.21;100.00;112049.66;5063691;28;20924;-72
2022/06/11 00:22:28;;;;;;;3.30;2.50;;;20.40;66.10;;;-142.21;100.00;112049.66;5058558;28;20205;-72
2022/06/11 00:24:55;;;;;;;4.93;3.37;;;20.40;66.10;;;-142.21;100.00;112049.66;5064321;28;20436;-72
2022/06/11 00:27:23;;;;;;;4.27;2.80;;;20.30;65.90;;;-142.21;100.00;112049.66;5070556;28;20243;-71
2022/06/11 00:29:52;;;;;;;2.83;2.60;;;20.30;65.70;;;-142.21;100.00;112049.66;5064610;28;20444;-71
2022/06/11 00:32:19;;;;;;;3.87;2.67;;;20.30;66.00;;;-142.21;100.00;112049.66;5063765;28;20447;-72
2022/06/11 00:34:50;;;;;;;3.30;2.73;;;20.20;65.90;;;-142.21;100.00;112049.66;5060474;28;20275;-71
2022/06/11 00:37:20;;;;;;;3.17;2.87;;;20.20;66.30;;;-142.21;100.00;112049.66;5064806;28;20194;-72
2022/06/11 00:39:47;;;;;;;4.37;3.17;;;20.20;66.40;;;-142.21;100.00;112049.66;5053879;28;20441;-71
2022/06/11 00:42:21;;;;;;;3.17;2.80;;;20.10;66.60;;;-142.21;100.00;112049.66;5062758;28;20200;-72
2022/06/11 00:44:49;;;;;;;2.83;2.63;;;20.10;66.90;;;-142.21;100.00;112049.66;5057147;28;20197;-71
2022/06/11 00:47:21;;;;;;;3.23;2.80;;;20.10;67.00;;;-142.21;100.00;112049.66;5071081;28;20561;-71
2022/06/11 00:49:54;;;;;;;3.90;2.67;;;20.00;66.90;;;-142.21;100.00;112049.66;5063011;28;20714;-71
2022/06/11 00:52:31;;;;;;;4.70;2.80;;;20.00;66.60;;;-142.21;100.00;112049.66;5061753;28;20462;-71
2022/06/11 00:55:06;;;;;;;4.83;2.73;;;20.00;66.90;;;-142.21;100.00;112049.66;5051918;28;20209;-71
2022/06/11 00:57:42;;;;;;;4.23;2.60;;;19.90;67.00;;;-142.21;100.00;112049.66;5033012;28;20278;-73
2022/06/11 01:00:16;;;;;;;3.97;3.17;;;19.90;66.90;;;-142.21;100.00;112049.66;5059939;28;20653;-71
2022/06/11 01:02:44;;;;;;;4.70;2.80;;;19.90;67.00;;;-142.21;100.00;112049.66;5066159;28;20196;-72
2022/06/11 01:05:18;;;;;;;3.00;2.60;;;19.90;67.10;;;-142.21;100.00;112049.66;5069075;28;20207;-71
2022/06/11 01:08:23;;;;;;;2.73;2.53;;;19.90;67.40;;;-142.21;100.00;112049.66;5071990;28;20198;-71
2022/06/11 01:11:45;;;;;;;4.13;3.10;;;19.80;67.30;;;-142.21;100.00;112049.66;5057297;28;20444;-71
2022/06/11 01:14:36;;;;;;;3.63;2.80;;;19.80;67.80;;;-142.21;100.00;112049.66;5052151;28;20292;-71
2022/06/11 01:17:17;;;;;;;5.47;2.90;;;19.70;67.70;;;-142.21;100.00;112049.66;5049445;28;20456;-71
2022/06/11 01:20:15;;;;;;;3.30;3.00;;;19.70;68.50;;;-142.21;100.00;112049.66;5051916;28;20440;-72
2022/06/11 01:23:27;;;;;;;3.40;2.97;;;19.70;68.10;;;-142.21;100.00;112049.66;5062233;28;20458;-73
2022/06/11 01:26:14;;;;;;;3.80;2.67;;;19.70;67.90;;;-142.21;100.00;112049.66;5061412;28;20193;-71
2022/06/11 01:29:05;;;;;;;3.63;2.50;;;19.70;68.10;;;-142.21;100.00;112049.66;5038764;28;20189;-72
2022/06/11 01:31:42;;;;;;;3.67;3.03;;;19.60;68.20;;;-142.21;100.00;112049.66;5068400;28;20489;-71
2022/06/11 01:34:29;;;;;;;6.33;2.87;;;19.60;68.30;;;-142.21;100.00;112049.66;5052001;28;20428;-71
2022/06/11 01:37:07;;;;;;;3.00;2.80;;;19.60;68.50;;;-142.21;100.00;112049.66;5063796;28;20771;-72
2022/06/11 01:39:43;;;;;;;4.20;2.60;;;19.60;68.60;;;-142.21;100.00;112049.66;5046981;28;20973;-71
2022/06/11 01:42:23;;;;;;;2.97;2.30;;;19.50;68.40;;;-142.21;100.00;112049.66;5064809;28;20466;-71
2022/06/11 01:45:05;;;;;;;3.43;2.80;;;19.50;68.70;;;-142.21;100.00;112049.66;5063444;28;20468;-71
2022/06/11 01:47:35;;;;;;;2.80;2.60;;;19.50;68.80;;;-142.21;100.00;112049.66;5052145;28;20198;-71
2022/06/11 01:50:04;;;;;;;3.10;2.67;;;19.50;68.50;;;-142.21;100.00;112049.66;5058060;28;20455;-71
2022/06/11 01:53:14;;;;;;;4.60;2.83;;;19.50;68.60;;;-142.21;100.00;112049.66;5060820;28;20937;-71
2022/06/11 01:56:13;;;;;;;5.57;2.70;;;19.50;68.90;;;-142.21;100.00;112049.66;5053027;28;20218;-71
2022/06/11 01:59:08;;;;;;;4.17;2.90;;;19.40;69.10;;;-142.21;100.00;112049.66;5038822;28;20454;-71
2022/06/11 02:02:08;;;;;;;3.53;2.80;;;19.30;69.40;;;-142.21;100.00;112049.66;5067406;28;20191;-72
2022/06/11 02:04:48;;;;;;;3.03;2.57;;;19.30;69.40;;;-142.21;100.00;112049.66;5071863;28;20196;-72
2022/06/11 02:07:24;;;;;;;3.97;2.57;;;19.30;69.50;;;-142.21;100.00;112049.66;5052937;28;20440;-72
2022/06/11 02:10:05;;;;;;;2.90;2.67;;;19.30;69.40;;;-142.21;100.00;112049.66;5051550;28;20436;-72
2022/06/11 02:12:42;;;;;;;4.13;2.60;;;19.40;69.70;;;-142.21;100.00;112049.66;5060438;28;20476;-72
2022/06/11 02:15:20;;;;;;;2.97;2.50;;;19.30;69.50;;;-142.21;100.00;112049.66;5066923;28;20467;-72
2022/06/11 02:17:53;;;;;;;3.50;2.97;;;19.40;69.80;;;-142.21;100.00;112049.66;5052490;28;20432;-71
2022/06/11 02:20:28;;;;;;;4.97;3.20;;;19.40;69.70;;;-142.21;100.00;112049.66;5070837;28;20793;-72
2022/06/11 02:23:03;;;;;;;4.00;2.83;;;19.40;69.70;;;-142.21;100.00;112049.66;5059570;28;20466;-72
2022/06/11 02:25:39;;;;;;;3.63;2.50;;;19.30;69.80;;;-142.21;100.00;112049.66;5056345;28;20432;-71
2022/06/11 02:28:12;;;;;;;3.00;2.77;;;19.40;70.00;;;-142.21;100.00;112049.66;5072854;28;20435;-71
2022/06/11 02:30:43;;;;;;;3.37;3.00;;;19.30;69.70;;;-142.21;100.00;112049.66;5067957;28;20458;-72
2022/06/11 02:33:14;;;;;;;3.53;2.67;;;19.30;69.80;;;-142.21;100.00;112049.66;5059683;28;20444;-71
2022/06/11 02:35:56;;;;;;;5.40;2.50;;;19.30;69.90;;;-142.21;100.00;112049.66;5056242;28;20999;-72
2022/06/11 02:38:27;;;;;;;2.63;2.43;;;19.30;69.90;;;-142.21;100.00;112049.66;5060957;28;20440;-71
2022/06/11 02:40:59;;;;;;;4.53;2.50;;;19.30;69.90;;;-142.21;100.00;112049.66;5066389;28;20196;-72
2022/06/11 02:43:27;;;;;;;3.90;2.93;;;19.20;70.00;;;-142.21;100.00;112049.66;5054946;28;20236;-70
2022/06/11 02:45:55;;;;;;;3.60;2.90;;;19.20;70.00;;;-142.21;100.00;112049.66;5061907;28;20455;-71
2022/06/11 02:48:23;;;;;;;4.40;2.90;;;19.20;70.00;;;-142.21;100.00;112049.66;5072193;28;21026;-71
2022/06/11 02:50:53;;;;;;;3.20;2.80;;;19.10;70.30;;;-142.21;100.00;112049.66;5071878;28;20446;-72
2022/06/11 02:53:20;;;;;;;3.70;2.90;;;18.80;70.90;;;-142.21;100.00;112049.66;5069702;28;20491;-71
2022/06/11 02:55:47;;;;;;;3.63;3.20;;;18.70;71.40;;;-142.21;100.00;112049.66;5054663;28;20498;-71
2022/06/11 02:58:15;;;;;;;3.50;3.00;;;18.50;71.80;;;-142.21;100.00;112049.66;5073186;28;20455;-71
2022/06/11 03:00:48;;;;;;;2.90;2.53;;;18.50;71.60;;;-142.21;100.00;112049.66;5068791;28;20448;-71
2022/06/11 03:03:15;;;;;;;4.00;2.77;;;18.60;71.30;;;-142.21;100.00;112049.66;5064937;28;20442;-71
2022/06/11 03:05:43;;;;;;;3.33;2.73;;;18.70;71.10;;;-142.21;100.00;112049.66;5060548;28;20530;-71
2022/06/11 03:08:11;;;;;;;3.67;2.70;;;18.70;70.90;;;-142.21;100.00;112049.66;5071680;28;20461;-72
2022/06/11 03:10:39;;;;;;;4.00;2.87;;;18.70;70.80;;;-142.21;100.00;112049.66;5061059;28;20455;-72
2022/06/11 03:13:08;;;;;;;3.20;2.90;;;18.70;70.50;;;-142.21;100.00;112049.66;5062182;28;20508;-72
2022/06/11 03:15:35;;;;;;;3.33;3.03;;;18.70;70.70;;;-142.21;100.00;112049.66;5064391;28;20479;-72
2022/06/11 03:18:03;;;;;;;3.33;2.97;;;18.60;71.10;;;-142.21;100.00;112049.66;5066774;28;20443;-72
2022/06/11 03:20:32;;;;;;;5.20;3.13;;;18.40;71.10;;;-142.21;100.00;112049.66;5060245;28;20443;-72
2022/06/11 03:22:59;;;;;;;2.93;2.67;;;18.40;71.10;;;-142.21;100.00;112049.66;5056611;28;20920;-72
2022/06/11 03:25:28;;;;;;;4.53;3.20;;;18.50;71.20;;;-142.21;100.00;112049.66;5054596;28;20470;-72
2022/06/11 03:27:55;;;;;;;5.40;2.83;;;18.40;71.00;;;-142.21;100.00;112049.66;5041153;28;20454;-72
2022/06/11 03:30:26;;;;;;;3.10;2.73;;;18.40;71.70;;;-142.21;100.00;112049.66;5038762;28;20447;-72
2022/06/11 03:32:53;;;;;;;4.10;3.00;;;18.40;70.90;;;-142.21;100.00;112049.66;5059920;28;20820;-71
2022/06/11 03:35:21;;;;;;;3.83;2.70;;;18.40;70.80;;;-142.21;100.00;112049.66;5065728;28;20454;-72
2022/06/11 03:37:48;;;;;;;3.60;2.57;;;18.40;70.50;;;-142.21;100.00;112049.66;5065675;28;20440;-71
2022/06/11 03:40:15;;;;;;;3.57;2.57;;;18.50;70.60;;;-142.21;100.00;112049.66;5047953;28;20454;-71
2022/06/11 03:42:55;;;;;;;3.57;2.70;;;18.50;70.30;;;-142.21;100.00;112049.66;5058671;28;20440;-71
2022/06/11 03:45:23;;;;;;;5.17;2.83;;;18.50;70.20;;;-142.21;100.00;112049.66;5074076;28;20467;-71
2022/06/11 03:47:50;;;;;;;4.30;2.80;;;18.50;70.30;;;-142.21;100.00;112049.66;5060608;28;20448;-71
2022/06/11 03:50:22;;;;;;;3.07;2.83;;;18.50;70.20;;;-142.21;100.00;112049.66;5064770;28;20455;-72
2022/06/11 03:52:49;;;;;;;4.33;2.60;;;18.40;69.90;;;-142.21;100.00;112049.66;5061464;28;20925;-71
2022/06/11 03:55:17;;;;;;;3.33;3.00;;;18.50;70.00;;;-142.21;100.00;112049.66;5068877;28;20549;-71
2022/06/11 03:57:46;;;;;;;2.60;2.40;;;18.40;70.20;;;-142.21;100.00;112049.66;5062200;28;20447;-72
2022/06/11 04:01:14;;;;;;;3.00;2.70;;;18.40;70.80;;;-142.21;100.00;112049.66;5072703;28;20478;-72
2022/06/11 04:03:07;;;;;;;3.63;2.60;;;18.40;70.10;;;-142.21;100.00;112049.66;5046102;28;20439;-71
2022/06/11 04:05:36;;;;;;;4.20;2.90;;;18.50;70.80;;;-142.21;100.00;112049.66;5033643;28;20536;-73
2022/06/11 04:08:04;;;;;;;3.93;2.77;;;18.50;70.10;;;-142.21;100.00;112049.66;5060641;28;20911;-72
2022/06/11 04:10:31;;;;;;;4.20;2.83;;;18.50;70.10;;;-142.21;100.00;112049.66;5071158;28;20447;-72
2022/06/11 04:13:00;;;;;;;3.23;2.63;;;18.50;70.50;;;-142.21;100.00;112049.66;5066028;28;20479;-71
2022/06/11 04:15:27;;;;;;;3.70;2.87;;;18.50;70.70;;;-142.21;100.00;112049.66;5063950;28;20453;-71
2022/06/11 04:17:54;;;;;;;5.83;2.90;;;18.50;70.90;;;-142.21;100.00;112049.66;5057549;28;20440;-71
2022/06/11 04:20:22;;;;;;;4.70;2.77;;;18.50;71.00;;;-142.21;100.00;112049.66;5062299;28;20534;-71
2022/06/11 04:22:49;;;;;;;2.50;2.30;;;18.40;71.00;;;-142.21;100.00;112049.66;5068579;28;20459;-71
2022/06/11 04:25:18;;;;;;;3.60;2.60;;;18.50;71.10;;;-142.21;100.00;112049.66;5063495;28;20478;-71
2022/06/11 04:27:53;;;;;;;2.90;2.60;;;18.40;71.00;;;-142.21;100.00;112049.66;5068480;28;20443;-71
2022/06/11 04:30:25;;;;;;;4.43;2.67;;;18.50;71.20;;;-142.21;100.00;112049.66;5056317;28;20780;-71
2022/06/11 04:32:52;;;;;;;3.73;2.70;;;18.50;71.20;;;-142.21;100.00;112049.66;5057753;28;20440;-72
2022/06/11 04:35:20;;;;;;;4.00;3.10;;;18.50;71.20;;;-142.21;100.00;112049.66;5068680;28;20451;-71
2022/06/11 04:37:48;;;;;;;4.43;3.10;;;18.50;71.20;;;-142.21;100.00;112049.66;5054223;28;20483;-71
2022/06/11 04:40:19;;;;;;;4.17;2.90;;;18.60;71.50;;;-142.21;100.00;112049.66;5053113;28;20460;-71
2022/06/11 04:42:46;;;;;;;4.40;3.13;;;18.60;71.60;;;-142.21;100.00;112049.66;5062938;28;20431;-71
2022/06/11 04:45:16;;;;;;;6.53;3.70;;;18.70;71.70;;;-142.21;100.00;112049.66;5069731;28;20444;-72
2022/06/11 04:47:45;;;;;;;12.60;4.57;;;18.60;72.00;;;-142.21;100.00;112049.66;5054009;28;20498;-72
2022/06/11 04:50:18;;;;;;;9.27;4.30;;;18.70;72.10;;;-142.21;100.00;112049.66;5053173;28;21119;-72
2022/06/11 04:52:46;;;;;;;7.30;3.70;;;18.80;72.00;;;-142.21;100.00;112049.66;5055528;28;20454;-71
2022/06/11 04:55:13;;;;;;;4.53;3.30;;;18.80;71.10;;;-142.21;100.00;112049.66;5055361;28;20451;-71
2022/06/11 04:57:41;;;;;;;5.17;3.60;;;18.80;70.80;;;-142.21;100.00;112049.66;5052646;28;20484;-71
2022/06/11 05:00:10;;;;;;;3.77;3.33;;;18.80;70.90;;;-142.21;100.00;112049.66;5060139;28;20517;-71
2022/06/11 05:02:38;;;;;;;5.33;3.90;;;18.90;70.90;;;-142.21;100.00;112049.66;5060344;28;21019;-71
2022/06/11 05:05:09;;;;;;;3.87;3.00;;;19.00;70.70;;;-142.21;100.00;112049.66;5071986;28;20446;-71
2022/06/11 05:07:36;;;;;;;3.07;2.77;;;19.10;70.80;;;-142.21;100.00;112049.66;5055381;28;20440;-72
2022/06/11 05:10:05;;;;;;;3.37;3.00;;;19.20;70.70;;;-142.21;100.00;112049.66;5056305;28;20803;-71
2022/06/11 05:12:32;;;;;;;5.07;3.03;;;19.20;70.20;;;-142.21;100.00;112049.66;5054734;28;20507;-71
2022/06/11 05:14:59;;;;;;;4.13;2.90;;;19.30;69.50;;;-142.21;100.00;112049.66;5054061;28;20444;-71
2022/06/11 05:17:26;;;;;;;3.43;2.90;;;19.30;69.30;;;-142.21;100.00;112049.66;5053043;28;20480;-71
2022/06/11 05:19:53;;;;;;;4.43;3.00;;;19.30;68.90;;;-142.21;100.00;112049.66;5052029;28;20527;-71
2022/06/11 05:22:22;;;;;;;3.50;3.10;;;19.30;68.80;;;-142.21;100.00;112049.66;5050965;28;20202;-72
2022/06/11 05:24:49;;;;;;;3.07;2.63;;;19.40;68.80;;;-142.21;100.00;112049.66;5052478;28;20455;-71
2022/06/11 05:27:22;;;;;;;3.93;2.80;;;19.40;68.20;;;-142.21;100.00;112049.66;5062063;28;20443;-71
2022/06/11 05:29:54;;;;;;;4.40;3.10;;;19.50;68.30;;;-142.21;100.00;112049.66;5056791;28;20524;-73
2022/06/11 05:32:27;;;;;;;4.50;2.90;;;19.50;68.00;;;-142.21;100.00;112049.66;5052693;28;20447;-72
2022/06/11 05:34:54;;;;;;;4.70;2.90;;;19.50;68.30;;;-142.21;100.00;112049.66;5052216;28;20225;-72
2022/06/11 05:37:23;;;;;;;3.93;3.00;;;19.60;68.80;;;-142.21;100.00;112049.66;5059499;28;20475;-72
2022/06/11 05:39:51;;;;;;;4.57;2.97;;;19.70;68.90;;;-142.21;100.00;112049.66;5057688;28;20451;-72
2022/06/11 05:42:21;;;;;;;3.13;2.83;;;19.80;68.60;;;-142.21;100.00;112049.66;5056842;28;20942;-72
2022/06/11 05:44:50;;;;;;;3.33;3.03;;;19.80;68.20;;;-142.21;100.00;112049.66;5052346;28;20202;-71
2022/06/11 05:47:21;;;;;;;4.87;2.97;;;19.80;68.90;;;-142.21;100.00;112049.66;5062119;28;20220;-72
2022/06/11 05:49:59;;;;;;;3.97;3.47;;;20.00;70.10;;;-142.21;100.00;112049.66;5072114;28;20193;-72
2022/06/11 05:52:35;;;;;;;3.77;2.73;;;20.00;69.00;;;-142.21;100.00;112049.66;5056305;28;20782;-71
2022/06/11 05:55:03;;;;;;;5.17;2.67;;;20.00;69.10;;;-142.21;100.00;112049.66;5051670;28;20630;-72
2022/06/11 05:57:30;;;;;;;4.83;2.60;;;20.20;68.60;;;-142.21;100.00;112049.66;5064151;28;20283;-71
2022/06/11 06:00:02;;;;;;;4.17;2.60;;;20.30;67.90;;;-142.21;100.00;112049.66;5058334;28;20204;-71
2022/06/11 06:02:30;;;;;;;4.67;2.50;;;20.40;67.40;;;-142.21;98.96;112049.66;5060207;28;20214;-70
2022/06/11 06:04:57;;;;;;;3.00;2.30;;;20.50;66.90;;;-142.21;99.48;112049.66;5055630;28;20734;-71
2022/06/11 06:07:24;;;;;;;3.60;2.97;;;20.50;66.80;;;-142.21;96.56;112049.66;5066464;28;20212;-72
2022/06/11 06:09:53;;;;;;;4.07;2.67;;;20.60;65.50;;;-142.21;97.98;112049.66;5072172;28;20662;-72
2022/06/11 06:12:20;;;;;;;2.87;2.47;;;20.70;65.60;;;-142.21;96.41;112049.66;5060527;28;20332;-72
2022/06/11 06:14:47;;;;;;;4.13;2.50;;;20.80;65.10;;;-142.21;95.66;112049.66;5057082;28;20208;-72
2022/06/11 06:17:14;;;;;;;2.83;2.53;;;20.80;64.40;;;-142.21;95.12;112049.66;5066075;28;20221;-72
2022/06/11 06:19:41;;;;;;;4.83;2.67;;;20.80;64.50;;;-142.21;95.83;112049.66;5064607;28;20202;-71
2022/06/11 06:22:08;;;;;;;2.80;2.50;;;20.90;64.50;;;-142.21;94.08;112049.66;5070414;28;20201;-72
2022/06/11 06:24:35;;;;;;;3.90;2.60;;;21.00;63.30;;;-142.21;94.04;112049.66;5060210;28;20201;-72
2022/06/11 06:27:05;;;;;;;3.10;2.80;;;21.10;63.30;;;-142.21;93.93;112049.66;5056088;28;20204;-72
2022/06/11 06:29:32;;;;;;;4.90;2.60;;;21.10;63.30;;;-142.21;93.77;112049.66;5062364;28;20212;-72
2022/06/11 06:31:59;;;;;;;3.47;2.63;;;21.20;63.00;;;-142.21;92.61;112049.66;5060672;28;20200;-71
2022/06/11 06:34:26;;;;;;;2.90;2.60;;;21.40;62.60;;;-142.21;92.11;112049.66;5058485;28;20293;-72
2022/06/11 06:36:53;;;;;;;5.13;3.10;;;21.40;62.30;;;-142.21;92.71;112049.66;5062620;28;20580;-72
2022/06/11 06:39:21;;;;;;;2.37;2.17;;;21.50;62.50;;;-142.21;92.34;112049.66;5072616;28;20201;-70
2022/06/11 06:41:49;;;;;;;5.63;2.47;;;21.70;62.30;;;-142.21;88.17;112049.66;5073555;28;20201;-72
2022/06/11 06:44:18;;;;;;;2.30;1.93;;;21.70;60.30;;;-142.21;87.58;112049.66;5056470;28;20651;-71
2022/06/11 06:46:44;;;;;;;2.30;2.10;;;21.80;60.10;;;-142.21;86.99;112049.66;5068554;28;20224;-71
2022/06/11 06:49:12;;;;;;;2.33;2.10;;;21.80;60.50;;;-142.21;85.97;112049.66;5069263;28;20220;-72
2022/06/11 06:51:39;;;;;;;2.30;2.10;;;22.00;59.50;;;-142.21;84.40;112049.66;5056314;28;20607;-71
2022/06/11 06:54:06;;;;;;;4.13;2.10;;;22.10;59.20;;;-142.21;82.78;112049.66;5074350;28;20207;-71
2022/06/11 06:56:34;;;;;;;2.30;2.10;;;22.20;58.70;;;-142.21;80.43;112049.66;5069741;28;20852;-71
2022/06/11 06:59:02;;;;;;;2.13;1.93;;;22.20;57.90;;;-142.21;79.69;112049.66;5055094;28;20208;-71
2022/06/11 07:01:31;;;;;;;2.67;2.10;;;22.30;57.70;;;-142.21;79.51;112049.66;5056234;28;20202;-72
2022/06/11 07:03:58;;;;;;;3.67;2.10;;;22.40;57.40;;;-142.21;80.38;112049.66;5062247;28;20293;-72
2022/06/11 07:06:27;;;;;;;3.47;2.20;;;22.50;57.60;;;-142.21;82.66;112049.66;5056779;28;20197;-72
2022/06/11 07:08:55;;;;;;;5.03;2.20;;;22.60;58.20;;;-142.21;82.38;112049.66;5073342;28;20197;-72
2022/06/11 07:11:23;;;;;;;2.77;1.97;;;22.70;57.90;;;-142.21;81.63;112049.66;5066589;28;20237;-71
2022/06/11 07:13:53;;;;;;;3.57;2.20;;;22.80;57.70;;;-142.21;82.18;112049.66;5042211;28;20206;-71
2022/06/11 07:16:28;;;;;;;2.63;2.43;;;22.90;57.80;;;-142.21;82.12;112049.66;5072601;28;20296;-71
2022/06/11 07:19:02;;;;;;;5.60;2.10;;;23.00;57.70;;;-142.21;82.16;112049.66;5053935;28;20668;-71
2022/06/11 07:21:35;;;;;;;1.90;1.80;;;23.20;57.40;;;-142.21;80.24;112049.66;5039875;28;20706;-72
2022/06/11 07:24:11;;;;;;;3.17;2.27;;;23.20;56.80;;;-142.21;79.74;112049.66;5054607;28;20296;-72
2022/06/11 07:26:43;;;;;;;4.33;2.30;;;23.20;56.60;;;-142.21;78.53;112049.66;5057211;28;20199;-72
2022/06/11 07:29:16;;;;;;;5.03;2.27;;;23.20;56.50;;;-142.21;78.89;112049.66;5053997;28;20297;-71
2022/06/11 07:31:49;;;;;;;2.93;2.03;;;23.20;56.50;;;-142.21;77.80;112049.66;5055410;28;20186;-72
2022/06/11 07:34:19;;;;;;;3.20;2.37;;;23.40;57.20;;;-142.21;77.01;112049.66;5063029;28;20201;-72
2022/06/11 07:36:47;;;;;;;3.17;1.97;;;23.50;56.20;;;-142.21;74.66;112049.66;5054525;28;20299;-72
2022/06/11 07:39:15;;;;;;;2.57;2.00;;;23.70;56.10;;;-142.21;72.93;112049.66;5059650;28;20239;-71
2022/06/11 07:41:42;;;;;;;1.83;1.73;;;23.80;55.40;;;-142.21;71.06;112049.66;5056752;28;20204;-72
2022/06/11 07:44:10;;;;;;;3.07;2.03;;;24.00;54.80;;;-142.21;70.43;112049.66;5054546;28;20653;-72
2022/06/11 07:46:37;;;;;;;2.00;1.73;;;24.10;54.60;;;-142.21;71.71;112049.66;5054690;28;20217;-71
2022/06/11 07:49:04;;;;;;;4.07;2.10;;;24.20;54.80;;;-142.21;71.24;112049.66;5055819;28;20205;-72
2022/06/11 07:51:33;;;;;;;2.73;2.00;;;24.20;54.40;;;-142.21;71.45;112049.66;5056545;28;20290;-71
2022/06/11 07:54:00;;;;;;;3.20;2.03;;;24.40;54.30;;;-142.21;66.88;112049.66;5071729;28;20291;-71
2022/06/11 07:56:28;;;;;;;2.70;2.10;;;24.50;54.00;;;-142.21;66.57;112049.66;5071575;28;20204;-71
2022/06/11 07:58:55;;;;;;;2.73;2.10;;;24.60;53.50;;;-142.21;67.06;112049.66;5053094;28;20784;-71
2022/06/11 08:01:22;;;;;;;2.37;1.80;;;24.70;53.30;;;-142.21;68.67;112049.66;5059968;28;20300;-71
2022/06/11 08:03:49;;;;;;;2.73;2.07;;;24.80;53.50;;;-142.21;63.61;112049.66;5059900;28;20243;-71
2022/06/11 08:06:17;;;;;;;1.90;1.80;;;24.90;52.70;;;-142.21;59.26;112049.66;5061084;28;20569;-71
2022/06/11 08:08:46;;;;;;;1.73;1.63;;;25.00;51.70;;;-142.21;58.88;112049.66;5058159;28;20279;-71
2022/06/11 08:11:13;;;;;;;2.07;1.70;;;25.00;51.40;;;-142.21;56.59;112049.66;5066711;28;20681;-71
2022/06/11 08:13:40;;;;;;;2.03;1.63;;;25.20;50.90;;;-142.21;57.43;112049.66;5053286;28;20285;-72
2022/06/11 08:16:09;;;;;;;2.03;1.63;;;25.20;51.30;;;-142.21;58.61;112049.66;5053455;28;20202;-70
2022/06/11 08:18:38;;;;;;;2.40;1.97;;;25.30;50.70;;;-142.21;58.37;112049.66;5039665;28;20274;-71
2022/06/11 08:21:06;;;;;;;2.70;1.80;;;25.40;51.00;;;-142.21;59.90;112049.66;5054942;28;20289;-71
2022/06/11 08:23:33;;;;;;;2.30;1.87;;;25.50;50.90;;;-142.21;55.61;112049.66;5068129;28;20244;-71
2022/06/11 08:26:04;;;;;;;7.93;3.50;;;25.60;50.10;;;-142.21;57.42;112049.66;5055011;28;20715;-72
2022/06/11 08:28:31;;;;;;;4.57;2.23;;;25.60;50.00;;;-142.21;57.86;112049.66;5059576;28;20198;-72
2022/06/11 08:31:02;;;;;;;3.70;2.10;;;25.70;50.10;;;-142.21;57.99;112049.66;5055934;28;20201;-71
2022/06/11 08:33:30;;;;;;;3.17;2.37;;;25.80;50.10;;;-142.21;59.88;112049.66;5052885;28;20563;-71
2022/06/11 08:35:59;;;;;;;3.40;2.37;;;25.90;50.40;;;-142.21;57.38;112049.66;5059730;28;20211;-74
2022/06/11 08:38:27;;;;;;;3.40;2.00;;;26.10;50.10;;;-142.21;53.20;112049.66;5055170;28;20217;-71
2022/06/11 08:40:55;;;;;;;1.73;1.60;;;26.10;48.80;;;-142.21;50.70;112049.66;5057689;28;20206;-71
2022/06/11 08:43:29;;;;;;;3.00;2.10;;;26.20;48.20;;;-142.21;50.56;112049.66;5062858;28;20332;-71
2022/06/11 08:46:00;;;;;;;3.73;1.97;;;26.10;48.10;;;-142.21;48.55;112049.66;5065894;28;20217;-71
2022/06/11 08:48:51;;;;;;;3.00;2.00;;;26.10;47.00;;;-142.21;51.81;112049.66;5070340;28;20185;-72
2022/06/11 08:51:29;;;;;;;4.87;1.67;;;26.20;48.00;;;-142.21;49.83;112049.66;5057484;28;20264;-70
2022/06/11 08:54:01;;;;;;;2.70;1.60;;;26.30;47.10;;;-142.21;48.93;112049.66;5057573;28;20229;-73
2022/06/11 08:56:41;;;;;;;2.90;1.87;;;26.40;47.60;;;-142.21;48.92;112049.66;5052268;28;20677;-71
2022/06/11 08:59:49;;;;;;;1.90;1.60;;;26.50;46.80;;;-142.21;50.44;112049.66;5056299;28;20299;-71
2022/06/11 09:02:41;;;;;;;4.07;2.07;;;26.60;46.90;;;-142.21;46.07;112049.66;5043175;28;20202;-71
2022/06/11 09:05:33;;;;;;;3.63;1.90;;;26.70;45.50;;;-142.21;45.15;112049.66;5037383;28;20684;-71
2022/06/11 09:08:20;;;;;;;4.47;1.77;;;26.70;45.50;;;-142.21;45.22;112049.66;5053768;28;20194;-71
2022/06/11 09:11:20;;;;;;;7.03;2.17;;;26.60;45.50;;;-142.21;47.48;112049.66;5032802;28;20282;-71
2022/06/11 09:14:25;;;;;;;5.40;2.00;;;26.80;46.00;;;-142.21;46.16;112049.66;5039780;28;20229;-73
2022/06/11 09:17:37;;;;;;;1.70;1.60;;;26.80;45.30;;;-142.21;46.51;112049.66;5063070;28;20283;-71
2022/06/11 09:20:22;;;;;;;3.80;1.60;;;26.90;45.60;;;-142.21;45.75;112049.66;5059587;28;20201;-71
2022/06/11 09:23:19;;;;;;;2.43;1.60;;;27.00;45.80;;;-142.21;45.25;112049.66;5032571;28;20304;-71
2022/06/11 09:26:11;;;;;;;1.87;1.70;;;27.10;46.10;;;-142.21;46.10;112049.66;5048142;28;20193;-71
2022/06/11 09:28:44;;;;;;;2.60;1.63;;;27.20;45.80;;;-142.21;46.00;112049.66;5055156;28;20190;-72
2022/06/11 09:31:21;;;;;;;2.27;1.50;;;27.30;46.10;;;-142.21;47.25;112049.66;5075535;28;20712;-70
2022/06/11 09:34:02;;;;;;;2.07;1.87;;;27.40;46.40;;;-142.21;47.68;112049.66;5074075;28;20673;-71
2022/06/11 09:36:40;;;;;;;3.07;1.80;;;27.60;46.40;;;-142.21;51.18;112049.66;5052505;28;20196;-70
2022/06/11 09:39:27;;;;;;;3.13;2.00;;;27.80;47.50;;;-142.21;52.20;112049.66;5059987;28;20242;-72
2022/06/11 09:42:07;;;;;;;2.20;1.70;;;28.00;48.10;;;-142.21;50.21;112049.66;5064936;28;20630;-71
2022/06/11 09:44:47;;;;;;;3.53;1.70;;;28.20;47.30;;;-142.21;45.40;112049.66;5075995;28;20196;-72
2022/06/11 09:47:28;;;;;;;2.27;1.57;;;28.30;45.50;;;-142.21;49.68;112049.66;5058592;28;20219;-71
2022/06/11 09:50:14;;;;;;;3.63;1.77;;;28.40;46.60;;;-142.21;44.70;112049.66;5056085;28;20232;-70
2022/06/11 09:52:50;;;;;;;4.10;1.87;;;28.50;44.80;;;-142.21;44.13;112049.66;5056274;28;20617;-70
2022/06/11 09:55:29;;;;;;;2.23;1.60;;;28.60;44.50;;;-142.21;45.68;112049.66;5055400;28;20690;-71
2022/06/11 09:58:09;;;;;;;4.30;1.90;;;28.60;45.00;;;-142.21;49.02;112049.66;5035838;28;20213;-71
2022/06/11 10:00:43;;;;;;;1.90;1.60;;;28.60;46.40;;;-142.21;48.79;112049.66;5035489;28;20283;-71
2022/06/11 10:03:24;;;;;;;3.43;1.67;;;28.80;46.20;;;-142.21;48.35;112049.66;5018195;28;20299;-71
2022/06/11 10:06:00;;;;;;;4.67;2.17;;;28.90;46.70;;;-142.21;46.63;112049.66;5043935;28;20668;-71
2022/06/11 10:08:40;;;;;;;3.50;1.90;;;29.00;45.70;;;-142.21;40.56;112049.66;5075095;28;20284;-71
2022/06/11 10:11:20;;;;;;;1.63;1.50;;;28.90;42.40;;;-142.21;41.75;112049.66;5068441;28;20286;-71
2022/06/11 10:13:55;;;;;;;6.20;1.77;;;28.70;42.90;;;-142.21;46.42;112049.66;5055226;28;20286;-71
2022/06/11 10:16:32;;;;;;;2.67;1.50;;;28.60;45.30;;;-142.21;46.32;112049.66;5054151;28;20278;-70
2022/06/11 10:19:16;;;;;;;2.70;1.60;;;28.70;45.50;;;-142.21;44.97;112049.66;5055623;28;20305;-71
2022/06/11 10:21:59;;;;;;;1.67;1.50;;;28.80;45.00;;;-142.21;44.43;112049.66;5057850;28;20278;-71